• °C
  • Pobieranie danych...
wx



TAF EPBC 010200Z NIL=

TAF EPCE 010200Z 0103/0112 03004KT 9999 SCT015 BKN080 PROB30
0103/0108 5000 BR SCT006 BKN012 BECMG 0106/0108 07006KT=

TAF EPDA 010200Z 0103/0112 06004KT 9999 BKN020
PROB30 TEMPO 0103/0106 5000 MIFG BR BKN015=

TAF EPDE 010200Z NIL=

TAF EPDE 010200Z 0103/0112 04008KT 5000 BR BKN007 OVC012 TEMPO
0103/0107 2500 -DZ BR OVC003 BECMG 0108/0110 8000 SCT010 BKN015=

TAF EPDE 302300Z NIL=

TAF EPIR 010200Z NIL=

TAF EPIR 302300Z NIL=

TAF EPKS 010200Z 0103/0112 02006KT 9999 BKN015
TEMPO 0103/0106 5000 RA BR BKN007 OVC010
PROB30 TEMPO 0103/0106 3000 RADZ BR BKN004=

TAF EPLK 010200Z 0103/0112 02005KT 5000 BR BKN005 OVC010
TEMPO 0103/0112 3000 -RA BR BKN003=

TAF EPLY 010200Z NIL=

TAF EPLY 302300Z NIL=

TAF EPMB 010200Z 0103/0112 08008KT 9999 BKN015 BKN070 BECMG 0108/0110
SCT025 BKN100=

TAF COR EPMB 010334Z 3021/0106 01010KT 9999 BKN015 BKN100 PROB30
TEMPO 3021/3022 RA BKN013=

TAF EPMI 010200Z 0103/0112 35006KT 5000 BR BKN013
TEMPO 0103/0107 3000 DZRA BR BKN004
BECMG 0107/0109 09008KT 9999 BKN020=

TAF EPMI 301104Z 3000/0109 35006KT 7000 BKN013
TEMPO 0101/0107 3000 DZRA BR BKN004=

TAF EPMM 010200Z 0103/0112 07008KT 9999 BKN007 OVC012
TEMPO 0103/0109 5000 -RA BR BKN005
BECMG 0110/0112 BKN014=

TAF EPNA 010200Z NIL=

TAF EPNA 302300Z NIL=

TAF EPOK 010200Z 0103/0112 03008KT 9999 BKN017 PROB30 TEMPO 0103/0106
SCT007 BECMG 0103/0105 09008KT BECMG 0106/0109 09015KT SCT030=

TAF EPPR 010200Z NIL=

TAF EPPR 302300Z NIL=

TAF EPPW 010200Z 0103/0112 04008KT 9999 BKN007 OVC015 TEMPO 0103/0108
5000 RA BR BKN006 OVC012 PROB30 TEMPO 0103/0105 3000 RADZ BR
BKN004=

TAF EPPW 302300Z 3100/3109 03008KT 9999 SCT007 BKN017
TEMPO 0100/0108 5000 RA BR BKN006 OVC013
PROB30 TEMPO 0100/0105 3000 RADZ BR BKN004=

TAF AMD EPRA 010358Z 0103/0112 04008KT 4000 BR BKN007 OVC010 TEMPO
0105/0112 -RA BKN005 OVC010 BECMG 0108/0110 8000 SCT008 OVC015=

TAF EPRA 302300Z NIL=

TAF EPSN 010200Z 0103/0112 03006KT 8000 SCT030
TEMPO 0103/0108 BKN013
PROB30 TEMPO 0103/0107 4000 RA BKN005
BECMG 0108/0110 9999 BKN025=

TAF EPSN 302300Z 3000/0109 03006KT 8000 NSC
BECMG 0101/0103 BKN015
TEMPO 0102/0107 3000 BR BKN007
PROB30 0103/0107 BKN004=

TAF EPTM 010200Z NIL=

TAF EPTM 302300Z NIL=



IMGW-PIB Sites